createdAt,value
2018-11-25T00:00:10.004Z,67.15
2018-11-25T00:02:37.590Z,75.75
2018-11-25T00:05:05.422Z,69.77
2018-11-25T00:07:34.872Z,70.67
2018-11-25T00:10:00.898Z,69.47
2018-11-25T00:12:28.553Z,78.50
2018-11-25T00:14:56.106Z,69.17
2018-11-25T00:17:24.064Z,66.07
2018-11-25T00:19:51.430Z,64.07
2018-11-25T00:22:19.107Z,72.32
2018-11-25T00:24:46.499Z,69.32
2018-11-25T00:27:16.848Z,61.48
2018-11-25T00:29:44.214Z,70.22
2018-11-25T00:32:11.822Z,62.58
2018-11-25T00:34:39.261Z,65.78
2018-11-25T00:37:06.834Z,67.67
2018-11-25T00:39:34.564Z,65.00
2018-11-25T00:42:01.961Z,63.90
2018-11-25T00:44:29.300Z,64.90
2018-11-25T00:46:56.931Z,65.67
2018-11-25T00:49:24.523Z,58.13
2018-11-25T00:51:52.541Z,62.85
2018-11-25T00:54:20.123Z,63.63
2018-11-25T00:56:47.823Z,65.95
2018-11-25T00:59:15.964Z,69.90
2018-11-25T01:01:43.807Z,65.87
2018-11-25T01:04:11.879Z,61.23
2018-11-25T01:06:39.435Z,68.20
2018-11-25T01:09:08.226Z,65.25
2018-11-25T01:11:36.077Z,66.60
2018-11-25T01:14:03.707Z,59.20
2018-11-25T01:16:31.136Z,64.92
2018-11-25T01:18:58.485Z,68.47
2018-11-25T01:21:26.120Z,70.40
2018-11-25T01:23:53.953Z,61.53
2018-11-25T01:26:21.518Z,72.85
2018-11-25T01:28:48.883Z,56.80
2018-11-25T01:31:16.502Z,63.52
2018-11-25T01:33:44.062Z,64.12
2018-11-25T01:36:11.645Z,62.13
2018-11-25T01:38:39.263Z,66.05
2018-11-25T01:41:07.107Z,60.03
2018-11-25T01:43:34.706Z,60.45
2018-11-25T01:46:02.309Z,64.50
2018-11-25T01:48:29.970Z,68.72
2018-11-25T01:50:57.535Z,65.75
2018-11-25T01:53:25.123Z,67.30
2018-11-25T01:55:52.697Z,60.55
2018-11-25T01:58:20.312Z,71.15
2018-11-25T02:00:47.865Z,70.85
2018-11-25T02:03:15.532Z,58.48
2018-11-25T02:05:43.331Z,61.00
2018-11-25T02:08:10.642Z,63.02
2018-11-25T02:10:38.123Z,56.02
2018-11-25T02:13:05.754Z,62.75
2018-11-25T02:15:33.238Z,61.10
2018-11-25T02:18:00.816Z,67.78
2018-11-25T02:20:28.381Z,63.68
2018-11-25T02:22:56.207Z,57.53
2018-11-25T02:25:24.346Z,57.17
2018-11-25T02:27:51.849Z,61.88
2018-11-25T02:30:19.420Z,63.60
2018-11-25T02:32:47.473Z,62.80
2018-11-25T02:35:15.462Z,56.95
2018-11-25T02:37:42.818Z,55.48
2018-11-25T02:40:11.139Z,53.38
2018-11-25T02:42:38.507Z,51.00
2018-11-25T02:45:07.291Z,49.83
2018-11-25T02:47:34.646Z,51.05
2018-11-25T02:50:02.710Z,59.77
2018-11-25T02:52:30.285Z,51.20
2018-11-25T02:54:57.859Z,53.23
2018-11-25T02:57:25.702Z,54.95
2018-11-25T02:59:53.491Z,46.92
2018-11-25T03:02:20.913Z,53.25
2018-11-25T03:04:48.374Z,51.77
2018-11-25T03:07:15.712Z,48.98
2018-11-25T03:09:43.340Z,54.00
2018-11-25T03:12:10.675Z,47.93
2018-11-25T03:14:38.033Z,51.60
2018-11-25T03:17:05.425Z,51.08
2018-11-25T03:19:32.746Z,47.25
2018-11-25T03:22:00.090Z,48.75
2018-11-25T03:24:27.469Z,43.50
2018-11-25T03:26:54.822Z,46.53
2018-11-25T03:29:22.677Z,47.88
2018-11-25T03:31:50.272Z,43.58
2018-11-25T03:34:18.420Z,50.17
2018-11-25T03:36:45.778Z,53.45
2018-11-25T03:39:13.337Z,44.08
2018-11-25T03:41:40.739Z,50.28
2018-11-25T03:44:08.090Z,41.23
2018-11-25T03:46:35.430Z,46.98
2018-11-25T03:49:02.796Z,45.52
2018-11-25T03:51:30.375Z,46.05
2018-11-25T03:53:57.760Z,48.80
2018-11-25T03:56:25.362Z,48.65
2018-11-25T03:58:53.292Z,42.27
2018-11-25T04:01:20.663Z,44.18
2018-11-25T04:03:48.273Z,41.90
2018-11-25T04:06:15.615Z,44.08
2018-11-25T04:08:43.286Z,44.73
2018-11-25T04:11:11.131Z,40.40
2018-11-25T04:13:38.717Z,44.05
2018-11-25T04:16:06.074Z,43.00
2018-11-25T04:18:33.851Z,45.00
2018-11-25T04:21:01.186Z,39.00
2018-11-25T04:23:29.358Z,45.88
2018-11-25T04:25:56.758Z,46.25
2018-11-25T04:28:24.352Z,41.90
2018-11-25T04:30:51.933Z,42.35
2018-11-25T04:33:19.495Z,43.73
2018-11-25T04:35:47.070Z,42.67
2018-11-25T04:38:14.940Z,36.77
2018-11-25T04:40:42.749Z,38.25
2018-11-25T04:43:10.128Z,39.50
2018-11-25T04:45:38.023Z,38.02
2018-11-25T04:48:05.602Z,43.58
2018-11-25T04:50:33.231Z,39.80
2018-11-25T04:53:00.915Z,43.63
2018-11-25T04:55:28.489Z,35.70
2018-11-25T04:57:55.909Z,37.63
2018-11-25T05:00:23.285Z,34.48
2018-11-25T05:02:51.387Z,35.73
2018-11-25T05:05:19.612Z,37.03
2018-11-25T05:07:46.964Z,42.45
2018-11-25T05:10:16.677Z,36.93
2018-11-25T05:12:44.014Z,38.60
2018-11-25T05:15:12.006Z,37.53
2018-11-25T05:17:39.345Z,31.90
2018-11-25T05:20:07.674Z,37.20
2018-11-25T05:22:35.038Z,38.25
2018-11-25T05:25:02.945Z,39.88
2018-11-25T05:27:30.288Z,32.30
2018-11-25T05:29:58.139Z,33.38
2018-11-25T05:32:25.747Z,40.25
2018-11-25T05:34:53.327Z,31.23
2018-11-25T05:37:20.721Z,34.78
2018-11-25T05:39:48.940Z,34.83
2018-11-25T05:42:16.289Z,33.20
2018-11-25T05:44:43.688Z,34.50
2018-11-25T05:47:12.459Z,32.55
2018-11-25T05:49:40.393Z,37.08
2018-11-25T05:52:07.986Z,35.15
2018-11-25T05:54:35.929Z,33.38
2018-11-25T05:57:03.275Z,35.78
2018-11-25T05:59:30.860Z,31.60
2018-11-25T06:01:58.331Z,30.12
2018-11-25T06:04:26.135Z,33.70
2018-11-25T06:06:53.875Z,34.60
2018-11-25T06:09:21.694Z,30.57
2018-11-25T06:11:49.309Z,33.00
2018-11-25T06:14:16.770Z,31.57
2018-11-25T06:16:44.355Z,31.00
2018-11-25T06:19:11.937Z,32.30
2018-11-25T06:21:39.836Z,34.85
2018-11-25T06:24:07.239Z,30.43
2018-11-25T06:26:34.872Z,32.35
2018-11-25T06:29:02.227Z,36.23
2018-11-25T06:31:31.655Z,32.98
2018-11-25T06:33:59.011Z,30.97
2018-11-25T06:36:26.412Z,35.15
2018-11-25T06:38:54.004Z,34.75
2018-11-25T06:41:21.587Z,32.65
2018-11-25T06:43:49.158Z,36.63
2018-11-25T06:46:16.759Z,32.95
2018-11-25T06:48:44.185Z,39.92
2018-11-25T06:51:11.608Z,34.70
2018-11-25T06:53:39.203Z,32.08
2018-11-25T06:56:07.007Z,37.38
2018-11-25T06:58:34.394Z,33.40
2018-11-25T07:01:02.025Z,44.30
2018-11-25T07:03:30.426Z,37.35
2018-11-25T07:05:57.790Z,37.30
2018-11-25T07:08:25.261Z,35.83
2018-11-25T07:10:52.711Z,32.50
2018-11-25T07:13:20.055Z,33.92
2018-11-25T07:15:47.490Z,36.63
2018-11-25T07:18:15.216Z,31.65
2018-11-25T07:20:42.588Z,36.17
2018-11-25T07:23:10.165Z,42.85
2018-11-25T07:25:37.768Z,35.05
2018-11-25T07:28:18.069Z,31.95
2018-11-25T07:30:32.726Z,34.85
2018-11-25T07:33:00.343Z,35.70
2018-11-25T07:35:27.909Z,31.07
2018-11-25T07:37:55.325Z,32.63
2018-11-25T07:40:24.191Z,35.48
2018-11-25T07:42:51.780Z,34.10
2018-11-25T07:45:19.853Z,36.88
2018-11-25T07:47:47.407Z,32.60
2018-11-25T07:50:14.797Z,35.63
2018-11-25T07:52:42.664Z,35.68
2018-11-25T07:55:11.756Z,31.77
2018-11-25T07:57:39.514Z,33.55
2018-11-25T08:00:10.076Z,35.25
2018-11-25T08:02:41.606Z,31.62
2018-11-25T08:05:05.893Z,36.80
2018-11-25T08:07:33.272Z,32.63
2018-11-25T08:10:00.641Z,29.37
2018-11-25T08:12:28.222Z,27.73
2018-11-25T08:14:55.577Z,34.27
2018-11-25T08:17:23.175Z,31.07
2018-11-25T08:19:50.654Z,29.82
2018-11-25T08:22:18.542Z,30.30
2018-11-25T08:24:46.144Z,32.17
2018-11-25T08:27:13.942Z,28.23
2018-11-25T08:29:41.512Z,30.77
2018-11-25T08:32:08.906Z,34.48
2018-11-25T08:34:36.890Z,30.60
2018-11-25T08:37:04.591Z,31.75
2018-11-25T08:39:32.203Z,36.28
2018-11-25T08:41:59.792Z,32.73
2018-11-25T08:44:27.131Z,32.28
2018-11-25T08:46:54.479Z,32.93
2018-11-25T08:49:21.841Z,30.92
2018-11-25T08:51:49.500Z,34.23
2018-11-25T08:54:16.923Z,30.52
2018-11-25T08:56:45.002Z,34.90
2018-11-25T08:59:12.591Z,32.60
2018-11-25T09:01:40.417Z,46.48
2018-11-25T09:04:08.105Z,34.10
2018-11-25T09:06:35.482Z,31.85
2018-11-25T09:09:03.199Z,35.45
2018-11-25T09:11:30.791Z,30.30
2018-11-25T09:13:58.357Z,41.73
2018-11-25T09:16:28.215Z,33.38
2018-11-25T09:18:56.561Z,33.20
2018-11-25T09:21:24.257Z,29.02
2018-11-25T09:23:54.952Z,33.02
2018-11-25T09:26:22.966Z,31.70
2018-11-25T09:28:50.298Z,32.95
2018-11-25T09:31:17.967Z,34.83
2018-11-25T09:33:45.494Z,33.67
2018-11-25T09:36:13.817Z,30.62
2018-11-25T09:38:42.402Z,32.78
2018-11-25T09:41:09.758Z,34.40
2018-11-25T09:43:37.420Z,34.65
2018-11-25T09:46:05.625Z,34.73
2018-11-25T09:48:33.663Z,37.30
2018-11-25T09:51:02.700Z,35.55
2018-11-25T09:53:30.547Z,33.20
2018-11-25T09:55:58.696Z,38.33
2018-11-25T09:58:26.260Z,36.63
2018-11-25T10:00:53.663Z,37.03
2018-11-25T10:03:24.703Z,35.35
2018-11-25T10:05:52.976Z,37.88
2018-11-25T10:08:20.407Z,36.25
2018-11-25T10:10:52.657Z,39.20
2018-11-25T10:13:15.631Z,37.05
2018-11-25T10:15:43.224Z,41.58
2018-11-25T10:18:10.605Z,39.73
2018-11-25T10:20:37.958Z,41.53
2018-11-25T10:23:05.580Z,42.40
2018-11-25T10:25:33.150Z,40.63
2018-11-25T10:28:00.496Z,42.60
2018-11-25T10:30:28.371Z,36.38
2018-11-25T10:32:56.351Z,41.18
2018-11-25T10:35:23.680Z,39.92
2018-11-25T10:37:51.030Z,43.48
2018-11-25T10:40:20.083Z,51.08
2018-11-25T10:42:47.473Z,45.92
2018-11-25T10:45:15.449Z,40.25
2018-11-25T10:47:43.067Z,48.23
2018-11-25T10:50:12.224Z,47.40
2018-11-25T10:52:39.584Z,43.23
2018-11-25T10:55:07.784Z,37.63
2018-11-25T10:57:35.351Z,46.58
2018-11-25T11:00:02.912Z,47.10
2018-11-25T11:02:35.854Z,48.42
2018-11-25T11:05:06.069Z,46.33
2018-11-25T11:07:45.701Z,54.53
2018-11-25T11:10:13.109Z,44.58
2018-11-25T11:12:40.501Z,51.70
2018-11-25T11:15:08.909Z,52.33
2018-11-25T11:17:36.302Z,47.25
2018-11-25T11:20:04.412Z,50.85
2018-11-25T11:22:32.014Z,46.98
2018-11-25T11:24:59.351Z,52.38
2018-11-25T11:27:26.735Z,54.85
2018-11-25T11:29:54.350Z,47.30
2018-11-25T11:32:22.367Z,48.65
2018-11-25T11:34:49.968Z,50.35
2018-11-25T11:37:21.186Z,48.40
2018-11-25T11:39:48.931Z,54.13
2018-11-25T11:42:17.063Z,51.25
2018-11-25T11:44:45.136Z,52.80
2018-11-25T11:47:12.792Z,47.88
2018-11-25T11:49:40.803Z,52.80
2018-11-25T11:52:08.833Z,54.42
2018-11-25T11:54:37.248Z,53.73
2018-11-25T11:57:08.001Z,53.30
2018-11-25T11:59:35.889Z,55.12
2018-11-25T12:02:03.220Z,54.65
2018-11-25T12:04:30.837Z,47.83
2018-11-25T12:06:58.194Z,53.78
2018-11-25T12:09:25.780Z,47.70
2018-11-25T12:11:53.184Z,50.55
2018-11-25T12:14:20.552Z,50.20
2018-11-25T12:16:48.304Z,49.45
2018-11-25T12:19:16.127Z,53.55
2018-11-25T12:21:43.546Z,48.38
2018-11-25T12:24:11.169Z,54.13
2018-11-25T12:26:39.514Z,55.90
2018-11-25T12:29:08.441Z,53.55
2018-11-25T12:31:37.522Z,58.75
2018-11-25T12:34:05.746Z,54.38
2018-11-25T12:36:33.804Z,59.58
2018-11-25T12:39:03.931Z,48.38
2018-11-25T12:41:33.670Z,53.48
2018-11-25T12:44:04.366Z,58.35
2018-11-25T12:46:34.042Z,58.58
2018-11-25T12:49:03.003Z,67.17
2018-11-25T12:51:31.880Z,56.77
2018-11-25T12:54:01.042Z,100.15
2018-11-25T12:56:29.059Z,104.92
2018-11-25T12:58:58.905Z,67.42
2018-11-25T13:01:29.419Z,65.62
2018-11-25T13:04:00.067Z,75.67
2018-11-25T13:06:31.043Z,70.90
2018-11-25T13:09:01.120Z,91.57
2018-11-25T13:11:31.316Z,75.20
2018-11-25T13:14:00.004Z,82.92
2018-11-25T13:16:28.670Z,87.60
2018-11-25T13:18:57.102Z,72.62
2018-11-25T13:21:26.175Z,65.72
2018-11-25T13:23:56.668Z,67.65
2018-11-25T13:26:25.061Z,93.33
2018-11-25T13:28:55.549Z,84.35
2018-11-25T13:31:23.469Z,72.82
2018-11-25T13:33:52.156Z,74.85
2018-11-25T13:36:21.472Z,67.22
2018-11-25T13:38:51.553Z,80.92
2018-11-25T13:41:20.760Z,74.75
2018-11-25T13:43:48.351Z,67.12
2018-11-25T13:46:15.700Z,69.50
2018-11-25T13:48:43.294Z,74.45
2018-11-25T13:51:10.679Z,70.20
2018-11-25T13:53:38.174Z,62.85
2018-11-25T13:56:05.879Z,78.87
2018-11-25T13:58:33.507Z,67.55
2018-11-25T14:01:00.889Z,73.17
2018-11-25T14:03:35.067Z,77.58
2018-11-25T14:06:02.489Z,75.67
2018-11-25T14:08:30.008Z,79.62
2018-11-25T14:11:00.351Z,76.77
2018-11-25T14:13:27.721Z,71.37
2018-11-25T14:15:55.309Z,74.45
2018-11-25T14:18:23.718Z,76.90
2018-11-25T14:20:51.409Z,68.65
2018-11-25T14:23:20.788Z,72.12
2018-11-25T14:25:49.915Z,75.17
2018-11-25T14:28:17.298Z,87.37
2018-11-25T14:30:44.638Z,70.17
2018-11-25T14:33:13.146Z,74.60
2018-11-25T14:35:41.140Z,77.12
2018-11-25T14:38:10.055Z,78.75
2018-11-25T14:40:38.048Z,81.82
2018-11-25T14:43:06.126Z,75.42
2018-11-25T14:45:34.780Z,73.20
2018-11-25T14:48:02.371Z,78.85
2018-11-25T14:50:30.435Z,77.75
2018-11-25T14:52:58.366Z,71.60
2018-11-25T14:55:26.702Z,71.87
2018-11-25T14:57:55.719Z,72.45
2018-11-25T15:00:24.443Z,70.45
2018-11-25T15:02:59.296Z,71.02
2018-11-25T15:05:28.400Z,70.10
2018-11-25T15:07:56.007Z,70.70
2018-11-25T15:10:23.755Z,71.45
2018-11-25T15:12:51.168Z,66.45
2018-11-25T15:15:18.760Z,67.08
2018-11-25T15:17:46.472Z,75.30
2018-11-25T15:20:13.879Z,70.22
2018-11-25T15:22:42.004Z,81.15
2018-11-25T15:25:10.354Z,80.83
2018-11-25T15:27:37.705Z,76.82
2018-11-25T15:30:06.347Z,76.05
2018-11-25T15:32:34.183Z,79.55
2018-11-25T15:35:01.574Z,72.47
2018-11-25T15:37:29.230Z,81.92
2018-11-25T15:39:56.907Z,79.15
2018-11-25T15:42:24.487Z,67.95
2018-11-25T15:44:52.065Z,72.25
2018-11-25T15:47:19.431Z,71.90
2018-11-25T15:49:47.028Z,73.33
2018-11-25T15:52:14.392Z,81.32
2018-11-25T15:54:42.267Z,81.20
2018-11-25T15:57:09.863Z,77.72
2018-11-25T15:59:38.855Z,90.07
2018-11-25T16:02:06.501Z,82.45
2018-11-25T16:04:34.049Z,78.12
2018-11-25T16:07:03.190Z,84.20
2018-11-25T16:09:32.063Z,78.57
2018-11-25T16:12:00.111Z,86.80
2018-11-25T16:14:28.884Z,89.75
2018-11-25T16:16:56.865Z,86.05
2018-11-25T16:19:26.303Z,92.55
2018-11-25T16:21:56.184Z,89.10
2018-11-25T16:24:26.202Z,96.42
2018-11-25T16:26:57.057Z,87.22
2018-11-25T16:29:26.896Z,80.97
2018-11-25T16:31:54.242Z,96.32
2018-11-25T16:34:21.846Z,83.78
2018-11-25T16:36:49.227Z,82.62
2018-11-25T16:39:16.676Z,93.85
2018-11-25T16:41:44.064Z,77.50
2018-11-25T16:44:11.428Z,86.00
2018-11-25T16:46:38.987Z,85.35
2018-11-25T16:49:06.855Z,85.72
2018-11-25T16:51:34.187Z,90.87
2018-11-25T16:54:01.760Z,102.60
2018-11-25T16:56:29.120Z,75.00
2018-11-25T16:58:56.459Z,102.38
2018-11-25T17:01:23.853Z,100.12
2018-11-25T17:03:51.912Z,99.60
2018-11-25T17:06:19.313Z,95.50
2018-11-25T17:08:46.727Z,103.55
2018-11-25T17:11:14.474Z,122.02
2018-11-25T17:13:42.320Z,93.22
2018-11-25T17:16:09.975Z,101.30
2018-11-25T17:18:37.819Z,117.65
2018-11-25T17:21:05.667Z,90.50
2018-11-25T17:23:33.000Z,97.62
2018-11-25T17:26:01.191Z,95.20
2018-11-25T17:28:29.185Z,101.35
2018-11-25T17:30:56.722Z,107.58
2018-11-25T17:33:24.326Z,108.25
2018-11-25T17:35:52.312Z,113.47
2018-11-25T17:38:20.011Z,100.33
2018-11-25T17:40:47.446Z,119.65
2018-11-25T17:43:16.288Z,120.42
2018-11-25T17:45:43.771Z,95.90
2018-11-25T17:48:11.390Z,118.17
2018-11-25T17:50:38.840Z,119.93
2018-11-25T17:53:06.858Z,103.92
2018-11-25T17:55:34.225Z,121.47
2018-11-25T17:58:01.754Z,106.43
2018-11-25T18:00:36.379Z,116.10
2018-11-25T18:03:07.636Z,113.20
2018-11-25T18:05:38.853Z,125.92
2018-11-25T18:08:05.101Z,115.03
2018-11-25T18:10:33.969Z,124.53
2018-11-25T18:13:02.390Z,125.97
2018-11-25T18:15:31.009Z,135.57
2018-11-25T18:18:01.544Z,126.55
2018-11-25T18:20:32.084Z,127.47
2018-11-25T18:22:59.629Z,142.47
2018-11-25T18:25:27.009Z,127.05
2018-11-25T18:28:00.375Z,124.38
2018-11-25T18:30:21.782Z,121.72
2018-11-25T18:32:49.189Z,135.48
2018-11-25T18:35:16.765Z,127.67
2018-11-25T18:37:44.099Z,135.10
2018-11-25T18:40:12.034Z,125.87
2018-11-25T18:42:39.532Z,130.65
2018-11-25T18:45:08.433Z,119.75
2018-11-25T18:47:36.267Z,141.62
2018-11-25T18:50:03.707Z,140.03
2018-11-25T18:52:31.329Z,109.30
2018-11-25T18:54:58.376Z,114.65
2018-11-25T18:57:25.715Z,122.30
2018-11-25T18:59:53.065Z,106.63
2018-11-25T19:02:23.121Z,117.33
2018-11-25T19:04:50.798Z,98.47
2018-11-25T19:07:18.143Z,108.63
2018-11-25T19:09:47.482Z,100.55
2018-11-25T19:12:15.324Z,114.40
2018-11-25T19:14:43.242Z,97.65
2018-11-25T19:17:11.296Z,99.32
2018-11-25T19:19:39.290Z,99.62
2018-11-25T19:22:08.153Z,100.30
2018-11-25T19:24:36.237Z,100.47
2018-11-25T19:27:04.450Z,85.20
2018-11-25T19:29:32.609Z,99.03
2018-11-25T19:32:01.327Z,110.57
2018-11-25T19:34:29.325Z,87.17
2018-11-25T19:36:57.324Z,98.05
2018-11-25T19:39:26.911Z,113.20
2018-11-25T19:41:54.902Z,116.97
2018-11-25T19:44:22.592Z,107.22
2018-11-25T19:46:51.137Z,92.50
2018-11-25T19:49:20.693Z,97.05
2018-11-25T19:51:48.974Z,102.47
2018-11-25T19:54:20.685Z,104.03
2018-11-25T19:56:49.468Z,115.77
2018-11-25T19:59:18.624Z,116.73
2018-11-25T20:01:49.607Z,103.17
2018-11-25T20:04:18.130Z,94.45
2018-11-25T20:06:48.257Z,106.80
2018-11-25T20:09:19.248Z,115.35
2018-11-25T20:11:49.201Z,107.72
2018-11-25T20:14:19.304Z,97.10
2018-11-25T20:17:56.208Z,98.35
2018-11-25T20:20:26.629Z,80.03
2018-11-25T20:22:56.939Z,98.40
2018-11-25T20:25:24.965Z,110.88
2018-11-25T20:27:54.407Z,108.80
2018-11-25T20:30:26.920Z,120.02
2018-11-25T20:33:00.048Z,112.15
2018-11-25T20:35:28.545Z,107.12
2018-11-25T20:38:04.110Z,95.90
2018-11-25T20:40:33.880Z,107.70
2018-11-25T20:43:03.367Z,97.67
2018-11-25T20:45:39.065Z,110.42
2018-11-25T20:48:08.055Z,116.10
2018-11-25T20:50:37.005Z,109.27
2018-11-25T20:53:10.620Z,115.45
2018-11-25T20:55:38.698Z,107.37
2018-11-25T20:58:07.934Z,104.65
2018-11-25T21:00:36.571Z,118.90
2018-11-25T21:03:05.051Z,83.03
2018-11-25T21:05:33.639Z,110.37
2018-11-25T21:08:02.623Z,109.63
2018-11-25T21:10:30.844Z,111.97
2018-11-25T21:12:59.227Z,118.80
2018-11-25T21:15:28.861Z,105.83
2018-11-25T21:17:57.589Z,111.68
2018-11-25T21:20:29.032Z,115.62
2018-11-25T21:22:57.367Z,108.70
2018-11-25T21:25:27.569Z,102.80
2018-11-25T21:27:56.480Z,103.07
2018-11-25T21:30:25.270Z,91.57
2018-11-25T21:32:53.373Z,89.50
2018-11-25T21:35:20.733Z,87.50
2018-11-25T21:37:48.057Z,102.30
2018-11-25T21:40:17.105Z,99.55
2018-11-25T21:42:44.970Z,100.27
2018-11-25T21:45:13.750Z,107.25
2018-11-25T21:47:41.200Z,100.87
2018-11-25T21:50:10.034Z,96.72
2018-11-25T21:52:37.634Z,89.80
2018-11-25T21:55:05.832Z,91.35
2018-11-25T21:57:33.620Z,97.88
2018-11-25T22:00:01.211Z,103.20
2018-11-25T22:02:29.992Z,86.00
2018-11-25T22:04:57.562Z,98.62
2018-11-25T22:07:25.121Z,89.05
2018-11-25T22:09:52.683Z,93.22
2018-11-25T22:12:20.010Z,98.35
2018-11-25T22:14:47.391Z,94.70
2018-11-25T22:17:14.709Z,108.15
2018-11-25T22:19:42.372Z,102.55
2018-11-25T22:22:09.937Z,97.30
2018-11-25T22:24:37.387Z,91.10
2018-11-25T22:27:04.765Z,92.67
2018-11-25T22:29:32.198Z,109.50
2018-11-25T22:31:59.538Z,94.10
2018-11-25T22:34:26.909Z,94.17
2018-11-25T22:36:54.479Z,82.90
2018-11-25T22:39:28.634Z,93.55
2018-11-25T22:41:55.990Z,104.07
2018-11-25T22:44:23.602Z,99.50
2018-11-25T22:46:52.315Z,107.78
2018-11-25T22:49:19.789Z,99.05
2018-11-25T22:51:47.376Z,97.42
2018-11-25T22:54:14.703Z,84.62
2018-11-25T22:56:42.111Z,106.83
2018-11-25T22:59:09.669Z,100.97
2018-11-25T23:01:37.266Z,91.00
2018-11-25T23:04:10.430Z,88.35
2018-11-25T23:06:43.579Z,96.95
2018-11-25T23:09:11.146Z,97.45
2018-11-25T23:11:38.485Z,107.60
2018-11-25T23:14:06.093Z,113.25
2018-11-25T23:16:33.646Z,93.75
2018-11-25T23:19:00.970Z,96.32
2018-11-25T23:21:28.304Z,99.07
2018-11-25T23:23:55.678Z,113.65
2018-11-25T23:26:22.999Z,119.57
2018-11-25T23:28:50.349Z,103.20
2018-11-25T23:31:17.919Z,116.12
2018-11-25T23:33:45.240Z,90.80
2018-11-25T23:36:12.664Z,112.22
2018-11-25T23:38:40.223Z,92.47
2018-11-25T23:41:07.579Z,103.72
2018-11-25T23:43:35.402Z,114.17
2018-11-25T23:46:03.011Z,102.25
2018-11-25T23:48:30.360Z,122.80
2018-11-25T23:50:57.939Z,115.85
2018-11-25T23:53:25.760Z,113.85
2018-11-25T23:55:53.406Z,102.47
2018-11-25T23:58:20.800Z,101.78
